sensor_id;sensor_type;location;lat;lon;timestamp;P1;durP1;ratioP1;P2;durP2;ratioP2
4486;SDS011;2256;48.740;9.106;2023-07-30T00:01:33;1.97;;;1.57;;
4486;SDS011;2256;48.740;9.106;2023-07-30T00:04:00;8.33;;;1.90;;
4486;SDS011;2256;48.740;9.106;2023-07-30T00:06:26;3.70;;;1.70;;
4486;SDS011;2256;48.740;9.106;2023-07-30T00:08:53;4.73;;;1.83;;
4486;SDS011;2256;48.740;9.106;2023-07-30T00:11:20;2.97;;;2.10;;
4486;SDS011;2256;48.740;9.106;2023-07-30T00:13:48;1.97;;;1.77;;
4486;SDS011;2256;48.740;9.106;2023-07-30T00:16:14;3.90;;;2.20;;
4486;SDS011;2256;48.740;9.106;2023-07-30T00:18:41;2.50;;;1.83;;
4486;SDS011;2256;48.740;9.106;2023-07-30T00:21:08;4.17;;;2.63;;
4486;SDS011;2256;48.740;9.106;2023-07-30T00:23:35;6.10;;;2.50;;
4486;SDS011;2256;48.740;9.106;2023-07-30T00:26:02;3.43;;;2.57;;
4486;SDS011;2256;48.740;9.106;2023-07-30T00:28:28;3.87;;;2.20;;
4486;SDS011;2256;48.740;9.106;2023-07-30T00:30:56;4.20;;;2.90;;
4486;SDS011;2256;48.740;9.106;2023-07-30T00:33:23;4.30;;;1.87;;
4486;SDS011;2256;48.740;9.106;2023-07-30T00:35:50;2.17;;;2.00;;
4486;SDS011;2256;48.740;9.106;2023-07-30T00:38:17;3.53;;;2.07;;
4486;SDS011;2256;48.740;9.106;2023-07-30T00:40:44;2.93;;;1.83;;
4486;SDS011;2256;48.740;9.106;2023-07-30T00:43:11;8.30;;;2.83;;
4486;SDS011;2256;48.740;9.106;2023-07-30T00:45:38;5.20;;;2.63;;
4486;SDS011;2256;48.740;9.106;2023-07-30T00:48:08;4.50;;;2.80;;
4486;SDS011;2256;48.740;9.106;2023-07-30T00:50:35;4.43;;;3.20;;
4486;SDS011;2256;48.740;9.106;2023-07-30T00:53:03;5.33;;;2.47;;
4486;SDS011;2256;48.740;9.106;2023-07-30T00:55:30;4.37;;;2.50;;
4486;SDS011;2256;48.740;9.106;2023-07-30T00:57:57;4.50;;;3.07;;
4486;SDS011;2256;48.740;9.106;2023-07-30T01:00:24;5.23;;;2.90;;
4486;SDS011;2256;48.740;9.106;2023-07-30T01:02:51;9.80;;;3.00;;
4486;SDS011;2256;48.740;9.106;2023-07-30T01:05:20;5.03;;;2.67;;
4486;SDS011;2256;48.740;9.106;2023-07-30T01:07:46;8.70;;;3.40;;
4486;SDS011;2256;48.740;9.106;2023-07-30T01:10:13;6.17;;;3.80;;
4486;SDS011;2256;48.740;9.106;2023-07-30T01:12:41;7.50;;;3.80;;
4486;SDS011;2256;48.740;9.106;2023-07-30T01:15:10;5.67;;;3.73;;
4486;SDS011;2256;48.740;9.106;2023-07-30T01:17:37;6.87;;;4.47;;
4486;SDS011;2256;48.740;9.106;2023-07-30T01:20:04;13.07;;;5.00;;
4486;SDS011;2256;48.740;9.106;2023-07-30T01:22:33;6.73;;;4.67;;
4486;SDS011;2256;48.740;9.106;2023-07-30T01:25:00;4.07;;;3.30;;
4486;SDS011;2256;48.740;9.106;2023-07-30T01:27:28;5.57;;;3.77;;
4486;SDS011;2256;48.740;9.106;2023-07-30T01:29:58;5.03;;;3.80;;
4486;SDS011;2256;48.740;9.106;2023-07-30T01:32:30;5.97;;;3.80;;
4486;SDS011;2256;48.740;9.106;2023-07-30T01:34:58;3.67;;;2.70;;
4486;SDS011;2256;48.740;9.106;2023-07-30T01:37:28;6.00;;;3.47;;
4486;SDS011;2256;48.740;9.106;2023-07-30T01:39:57;4.83;;;3.00;;
4486;SDS011;2256;48.740;9.106;2023-07-30T01:42:27;4.43;;;3.53;;
4486;SDS011;2256;48.740;9.106;2023-07-30T01:44:55;8.03;;;3.40;;
4486;SDS011;2256;48.740;9.106;2023-07-30T01:47:22;3.60;;;2.90;;
4486;SDS011;2256;48.740;9.106;2023-07-30T01:49:49;4.00;;;2.77;;
4486;SDS011;2256;48.740;9.106;2023-07-30T01:52:16;3.07;;;2.47;;
4486;SDS011;2256;48.740;9.106;2023-07-30T01:54:42;4.43;;;3.00;;
4486;SDS011;2256;48.740;9.106;2023-07-30T01:57:11;4.77;;;2.80;;
4486;SDS011;2256;48.740;9.106;2023-07-30T01:59:38;3.53;;;2.60;;
4486;SDS011;2256;48.740;9.106;2023-07-30T02:02:04;3.67;;;2.63;;
4486;SDS011;2256;48.740;9.106;2023-07-30T02:04:32;2.73;;;2.43;;
4486;SDS011;2256;48.740;9.106;2023-07-30T02:06:58;2.63;;;2.40;;
4486;SDS011;2256;48.740;9.106;2023-07-30T02:09:25;3.27;;;2.50;;
4486;SDS011;2256;48.740;9.106;2023-07-30T02:11:52;4.13;;;2.90;;
4486;SDS011;2256;48.740;9.106;2023-07-30T02:14:20;6.93;;;3.03;;
4486;SDS011;2256;48.740;9.106;2023-07-30T02:16:47;6.13;;;3.70;;
4486;SDS011;2256;48.740;9.106;2023-07-30T02:19:13;4.83;;;3.40;;
4486;SDS011;2256;48.740;9.106;2023-07-30T02:21:40;6.30;;;3.60;;
4486;SDS011;2256;48.740;9.106;2023-07-30T02:24:08;5.03;;;3.43;;
4486;SDS011;2256;48.740;9.106;2023-07-30T02:26:36;5.77;;;3.83;;
4486;SDS011;2256;48.740;9.106;2023-07-30T02:29:03;6.27;;;3.40;;
4486;SDS011;2256;48.740;9.106;2023-07-30T02:31:31;4.27;;;3.30;;
4486;SDS011;2256;48.740;9.106;2023-07-30T02:33:57;4.67;;;3.50;;
4486;SDS011;2256;48.740;9.106;2023-07-30T02:36:24;4.77;;;3.83;;
4486;SDS011;2256;48.740;9.106;2023-07-30T02:38:51;4.73;;;3.33;;
4486;SDS011;2256;48.740;9.106;2023-07-30T02:41:18;4.67;;;3.67;;
4486;SDS011;2256;48.740;9.106;2023-07-30T02:43:44;10.20;;;3.37;;
4486;SDS011;2256;48.740;9.106;2023-07-30T02:46:11;16.33;;;3.47;;
4486;SDS011;2256;48.740;9.106;2023-07-30T02:48:39;3.90;;;3.23;;
4486;SDS011;2256;48.740;9.106;2023-07-30T02:51:06;3.70;;;2.60;;
4486;SDS011;2256;48.740;9.106;2023-07-30T02:53:33;5.20;;;3.30;;
4486;SDS011;2256;48.740;9.106;2023-07-30T02:55:59;3.83;;;3.43;;
4486;SDS011;2256;48.740;9.106;2023-07-30T02:58:26;5.73;;;3.33;;
4486;SDS011;2256;48.740;9.106;2023-07-30T03:00:53;5.50;;;3.00;;
4486;SDS011;2256;48.740;9.106;2023-07-30T03:03:20;5.40;;;2.93;;
4486;SDS011;2256;48.740;9.106;2023-07-30T03:05:48;5.37;;;3.40;;
4486;SDS011;2256;48.740;9.106;2023-07-30T03:08:14;4.27;;;2.63;;
4486;SDS011;2256;48.740;9.106;2023-07-30T03:10:41;4.63;;;3.50;;
4486;SDS011;2256;48.740;9.106;2023-07-30T03:13:08;7.80;;;3.23;;
4486;SDS011;2256;48.740;9.106;2023-07-30T03:15:34;3.80;;;2.57;;
4486;SDS011;2256;48.740;9.106;2023-07-30T03:18:01;3.37;;;2.50;;
4486;SDS011;2256;48.740;9.106;2023-07-30T03:20:28;7.33;;;3.13;;
4486;SDS011;2256;48.740;9.106;2023-07-30T03:22:56;3.50;;;2.67;;
4486;SDS011;2256;48.740;9.106;2023-07-30T03:25:23;4.97;;;3.00;;
4486;SDS011;2256;48.740;9.106;2023-07-30T03:27:50;6.20;;;2.90;;
4486;SDS011;2256;48.740;9.106;2023-07-30T03:30:16;4.07;;;3.23;;
4486;SDS011;2256;48.740;9.106;2023-07-30T03:32:43;3.20;;;2.80;;
4486;SDS011;2256;48.740;9.106;2023-07-30T03:35:10;4.80;;;3.37;;
4486;SDS011;2256;48.740;9.106;2023-07-30T03:37:37;4.97;;;3.70;;
4486;SDS011;2256;48.740;9.106;2023-07-30T03:40:06;6.10;;;3.60;;
4486;SDS011;2256;48.740;9.106;2023-07-30T03:42:33;5.40;;;3.47;;
4486;SDS011;2256;48.740;9.106;2023-07-30T03:45:00;4.13;;;3.40;;
4486;SDS011;2256;48.740;9.106;2023-07-30T03:47:27;6.13;;;3.40;;
4486;SDS011;2256;48.740;9.106;2023-07-30T03:49:53;5.00;;;3.27;;
4486;SDS011;2256;48.740;9.106;2023-07-30T03:52:20;4.43;;;3.00;;
4486;SDS011;2256;48.740;9.106;2023-07-30T03:54:47;3.37;;;2.50;;
4486;SDS011;2256;48.740;9.106;2023-07-30T03:57:15;3.80;;;3.00;;
4486;SDS011;2256;48.740;9.106;2023-07-30T03:59:42;3.70;;;2.57;;
4486;SDS011;2256;48.740;9.106;2023-07-30T04:02:08;3.63;;;2.87;;
4486;SDS011;2256;48.740;9.106;2023-07-30T04:04:40;6.60;;;2.70;;
4486;SDS011;2256;48.740;9.106;2023-07-30T04:07:07;4.23;;;2.30;;
4486;SDS011;2256;48.740;9.106;2023-07-30T04:09:33;5.13;;;2.70;;
4486;SDS011;2256;48.740;9.106;2023-07-30T04:12:00;4.20;;;2.70;;
4486;SDS011;2256;48.740;9.106;2023-07-30T04:14:28;4.10;;;3.07;;
4486;SDS011;2256;48.740;9.106;2023-07-30T04:16:55;3.83;;;2.80;;
4486;SDS011;2256;48.740;9.106;2023-07-30T04:19:22;3.80;;;2.30;;
4486;SDS011;2256;48.740;9.106;2023-07-30T04:21:49;4.00;;;3.20;;
4486;SDS011;2256;48.740;9.106;2023-07-30T04:24:15;4.10;;;2.53;;
4486;SDS011;2256;48.740;9.106;2023-07-30T04:26:42;7.27;;;2.63;;
4486;SDS011;2256;48.740;9.106;2023-07-30T04:29:09;3.67;;;3.23;;
4486;SDS011;2256;48.740;9.106;2023-07-30T04:31:37;2.33;;;2.13;;
4486;SDS011;2256;48.740;9.106;2023-07-30T04:34:04;4.00;;;2.60;;
4486;SDS011;2256;48.740;9.106;2023-07-30T04:36:31;3.83;;;2.90;;
4486;SDS011;2256;48.740;9.106;2023-07-30T04:38:57;6.50;;;2.90;;
4486;SDS011;2256;48.740;9.106;2023-07-30T04:41:24;6.07;;;3.10;;
4486;SDS011;2256;48.740;9.106;2023-07-30T04:43:51;5.20;;;2.30;;
4486;SDS011;2256;48.740;9.106;2023-07-30T04:46:18;3.03;;;2.50;;
4486;SDS011;2256;48.740;9.106;2023-07-30T04:48:46;3.83;;;2.60;;
4486;SDS011;2256;48.740;9.106;2023-07-30T04:51:12;3.50;;;2.60;;
4486;SDS011;2256;48.740;9.106;2023-07-30T04:53:39;5.60;;;2.70;;
4486;SDS011;2256;48.740;9.106;2023-07-30T04:56:06;6.20;;;3.67;;
4486;SDS011;2256;48.740;9.106;2023-07-30T04:58:32;10.90;;;3.23;;
4486;SDS011;2256;48.740;9.106;2023-07-30T05:00:59;6.10;;;3.40;;
4486;SDS011;2256;48.740;9.106;2023-07-30T05:03:26;6.00;;;2.77;;
4486;SDS011;2256;48.740;9.106;2023-07-30T05:05:54;5.50;;;2.80;;
4486;SDS011;2256;48.740;9.106;2023-07-30T05:08:21;5.13;;;3.30;;
4486;SDS011;2256;48.740;9.106;2023-07-30T05:10:48;4.60;;;2.57;;
4486;SDS011;2256;48.740;9.106;2023-07-30T05:13:14;5.43;;;3.20;;
4486;SDS011;2256;48.740;9.106;2023-07-30T05:15:41;3.50;;;2.97;;
4486;SDS011;2256;48.740;9.106;2023-07-30T05:18:08;6.00;;;3.20;;
4486;SDS011;2256;48.740;9.106;2023-07-30T05:20:35;7.33;;;3.07;;
4486;SDS011;2256;48.740;9.106;2023-07-30T05:23:03;11.90;;;2.87;;
4486;SDS011;2256;48.740;9.106;2023-07-30T05:25:29;4.00;;;2.70;;
4486;SDS011;2256;48.740;9.106;2023-07-30T05:27:56;9.10;;;2.97;;
4486;SDS011;2256;48.740;9.106;2023-07-30T05:30:23;4.60;;;3.10;;
4486;SDS011;2256;48.740;9.106;2023-07-30T05:32:49;4.40;;;2.80;;
4486;SDS011;2256;48.740;9.106;2023-07-30T05:35:16;3.60;;;2.67;;
4486;SDS011;2256;48.740;9.106;2023-07-30T05:37:43;3.07;;;2.77;;
4486;SDS011;2256;48.740;9.106;2023-07-30T05:40:11;3.87;;;2.50;;
4486;SDS011;2256;48.740;9.106;2023-07-30T05:42:38;3.90;;;2.90;;
4486;SDS011;2256;48.740;9.106;2023-07-30T05:45:05;2.17;;;2.07;;
4486;SDS011;2256;48.740;9.106;2023-07-30T05:47:33;2.67;;;2.47;;
4486;SDS011;2256;48.740;9.106;2023-07-30T05:50:01;3.70;;;2.70;;
4486;SDS011;2256;48.740;9.106;2023-07-30T05:52:28;3.60;;;2.87;;
4486;SDS011;2256;48.740;9.106;2023-07-30T05:54:55;3.30;;;2.67;;
4486;SDS011;2256;48.740;9.106;2023-07-30T05:57:23;12.13;;;3.27;;
4486;SDS011;2256;48.740;9.106;2023-07-30T05:59:50;4.73;;;2.70;;
4486;SDS011;2256;48.740;9.106;2023-07-30T06:02:17;5.57;;;2.67;;
4486;SDS011;2256;48.740;9.106;2023-07-30T06:04:44;3.63;;;2.73;;
4486;SDS011;2256;48.740;9.106;2023-07-30T06:07:15;3.90;;;2.80;;
4486;SDS011;2256;48.740;9.106;2023-07-30T06:09:42;2.30;;;2.10;;
4486;SDS011;2256;48.740;9.106;2023-07-30T06:12:10;2.27;;;2.03;;
4486;SDS011;2256;48.740;9.106;2023-07-30T06:14:38;2.23;;;2.03;;
4486;SDS011;2256;48.740;9.106;2023-07-30T06:17:05;5.43;;;2.37;;
4486;SDS011;2256;48.740;9.106;2023-07-30T06:19:32;2.30;;;2.07;;
4486;SDS011;2256;48.740;9.106;2023-07-30T06:21:58;3.00;;;2.30;;
4486;SDS011;2256;48.740;9.106;2023-07-30T06:24:25;4.93;;;2.40;;
4486;SDS011;2256;48.740;9.106;2023-07-30T06:26:52;3.07;;;2.03;;
4486;SDS011;2256;48.740;9.106;2023-07-30T06:29:18;2.40;;;1.87;;
4486;SDS011;2256;48.740;9.106;2023-07-30T06:31:46;4.77;;;2.33;;
4486;SDS011;2256;48.740;9.106;2023-07-30T06:34:13;3.77;;;2.10;;
4486;SDS011;2256;48.740;9.106;2023-07-30T06:36:40;2.90;;;1.80;;
4486;SDS011;2256;48.740;9.106;2023-07-30T06:39:07;2.60;;;2.07;;
4486;SDS011;2256;48.740;9.106;2023-07-30T06:41:33;4.23;;;2.30;;
4486;SDS011;2256;48.740;9.106;2023-07-30T06:44:00;2.10;;;1.73;;
4486;SDS011;2256;48.740;9.106;2023-07-30T06:46:27;2.10;;;1.90;;
4486;SDS011;2256;48.740;9.106;2023-07-30T06:48:55;2.50;;;1.73;;
4486;SDS011;2256;48.740;9.106;2023-07-30T06:51:23;1.50;;;1.40;;
4486;SDS011;2256;48.740;9.106;2023-07-30T06:53:51;3.00;;;1.70;;
4486;SDS011;2256;48.740;9.106;2023-07-30T06:56:18;2.53;;;1.67;;
4486;SDS011;2256;48.740;9.106;2023-07-30T06:58:45;1.60;;;1.50;;
4486;SDS011;2256;48.740;9.106;2023-07-30T07:01:11;1.93;;;1.83;;
4486;SDS011;2256;48.740;9.106;2023-07-30T07:03:38;2.03;;;1.73;;
4486;SDS011;2256;48.740;9.106;2023-07-30T07:06:06;2.17;;;1.60;;
4486;SDS011;2256;48.740;9.106;2023-07-30T07:08:33;2.20;;;1.50;;
4486;SDS011;2256;48.740;9.106;2023-07-30T07:10:59;1.97;;;1.50;;
4486;SDS011;2256;48.740;9.106;2023-07-30T07:13:26;1.60;;;1.50;;
4486;SDS011;2256;48.740;9.106;2023-07-30T07:15:53;3.93;;;1.80;;
4486;SDS011;2256;48.740;9.106;2023-07-30T07:18:19;1.47;;;1.37;;
4486;SDS011;2256;48.740;9.106;2023-07-30T07:20:46;2.60;;;1.70;;
4486;SDS011;2256;48.740;9.106;2023-07-30T07:23:14;3.07;;;1.80;;
4486;SDS011;2256;48.740;9.106;2023-07-30T07:25:41;5.30;;;1.67;;
4486;SDS011;2256;48.740;9.106;2023-07-30T07:28:09;2.10;;;1.70;;
4486;SDS011;2256;48.740;9.106;2023-07-30T07:30:36;1.80;;;1.50;;
4486;SDS011;2256;48.740;9.106;2023-07-30T07:33:03;1.27;;;1.17;;
4486;SDS011;2256;48.740;9.106;2023-07-30T07:35:30;1.50;;;1.40;;
4486;SDS011;2256;48.740;9.106;2023-07-30T07:37:57;2.03;;;1.80;;
4486;SDS011;2256;48.740;9.106;2023-07-30T07:40:25;1.60;;;1.50;;
4486;SDS011;2256;48.740;9.106;2023-07-30T07:42:52;1.70;;;1.60;;
4486;SDS011;2256;48.740;9.106;2023-07-30T07:45:20;2.10;;;1.47;;
4486;SDS011;2256;48.740;9.106;2023-07-30T07:47:47;1.60;;;1.50;;
4486;SDS011;2256;48.740;9.106;2023-07-30T07:50:14;2.33;;;1.50;;
4486;SDS011;2256;48.740;9.106;2023-07-30T07:52:41;2.43;;;1.50;;
4486;SDS011;2256;48.740;9.106;2023-07-30T07:55:10;1.97;;;1.37;;
4486;SDS011;2256;48.740;9.106;2023-07-30T07:57:38;2.50;;;1.37;;
4486;SDS011;2256;48.740;9.106;2023-07-30T08:00:05;4.67;;;1.80;;
4486;SDS011;2256;48.740;9.106;2023-07-30T08:02:33;1.57;;;1.27;;
4486;SDS011;2256;48.740;9.106;2023-07-30T08:05:00;2.10;;;1.43;;
4486;SDS011;2256;48.740;9.106;2023-07-30T08:07:28;1.40;;;1.20;;
4486;SDS011;2256;48.740;9.106;2023-07-30T08:09:54;1.43;;;1.30;;
4486;SDS011;2256;48.740;9.106;2023-07-30T08:12:21;1.50;;;1.40;;
4486;SDS011;2256;48.740;9.106;2023-07-30T08:14:49;1.50;;;1.40;;
4486;SDS011;2256;48.740;9.106;2023-07-30T08:17:16;1.33;;;1.23;;
4486;SDS011;2256;48.740;9.106;2023-07-30T08:19:45;1.57;;;1.47;;
4486;SDS011;2256;48.740;9.106;2023-07-30T08:22:12;1.50;;;1.40;;
4486;SDS011;2256;48.740;9.106;2023-07-30T08:24:39;1.53;;;1.43;;
4486;SDS011;2256;48.740;9.106;2023-07-30T08:27:06;1.40;;;1.30;;
4486;SDS011;2256;48.740;9.106;2023-07-30T08:29:32;1.63;;;1.53;;
4486;SDS011;2256;48.740;9.106;2023-07-30T08:32:00;1.60;;;1.50;;
4486;SDS011;2256;48.740;9.106;2023-07-30T08:34:27;2.23;;;1.50;;
4486;SDS011;2256;48.740;9.106;2023-07-30T08:36:54;1.50;;;1.40;;
4486;SDS011;2256;48.740;9.106;2023-07-30T08:39:20;1.50;;;1.40;;
4486;SDS011;2256;48.740;9.106;2023-07-30T08:41:47;1.63;;;1.53;;
4486;SDS011;2256;48.740;9.106;2023-07-30T08:44:14;2.73;;;1.60;;
4486;SDS011;2256;48.740;9.106;2023-07-30T08:46:41;4.43;;;1.40;;
4486;SDS011;2256;48.740;9.106;2023-07-30T08:49:09;1.30;;;1.20;;
4486;SDS011;2256;48.740;9.106;2023-07-30T08:51:36;1.63;;;1.53;;
4486;SDS011;2256;48.740;9.106;2023-07-30T08:54:03;2.40;;;1.70;;
4486;SDS011;2256;48.740;9.106;2023-07-30T08:56:31;1.70;;;1.60;;
4486;SDS011;2256;48.740;9.106;2023-07-30T08:58:58;5.63;;;1.60;;
4486;SDS011;2256;48.740;9.106;2023-07-30T09:01:26;1.93;;;1.63;;
4486;SDS011;2256;48.740;9.106;2023-07-30T09:03:57;1.63;;;1.50;;
4486;SDS011;2256;48.740;9.106;2023-07-30T09:06:26;1.60;;;1.50;;
4486;SDS011;2256;48.740;9.106;2023-07-30T09:08:53;1.90;;;1.80;;
4486;SDS011;2256;48.740;9.106;2023-07-30T09:11:20;1.20;;;1.20;;
4486;SDS011;2256;48.740;9.106;2023-07-30T09:13:53;1.60;;;1.50;;
4486;SDS011;2256;48.740;9.106;2023-07-30T09:16:23;1.83;;;1.40;;
4486;SDS011;2256;48.740;9.106;2023-07-30T09:18:51;1.30;;;1.20;;
4486;SDS011;2256;48.740;9.106;2023-07-30T09:21:19;1.40;;;1.27;;
4486;SDS011;2256;48.740;9.106;2023-07-30T09:23:56;1.50;;;1.40;;
4486;SDS011;2256;48.740;9.106;2023-07-30T09:26:23;2.03;;;1.70;;
4486;SDS011;2256;48.740;9.106;2023-07-30T09:28:49;5.43;;;2.00;;
4486;SDS011;2256;48.740;9.106;2023-07-30T09:31:16;2.10;;;1.80;;
4486;SDS011;2256;48.740;9.106;2023-07-30T09:33:43;2.37;;;1.57;;
4486;SDS011;2256;48.740;9.106;2023-07-30T09:36:10;2.40;;;1.93;;
4486;SDS011;2256;48.740;9.106;2023-07-30T09:38:38;2.07;;;1.70;;
4486;SDS011;2256;48.740;9.106;2023-07-30T09:41:07;5.40;;;2.10;;
4486;SDS011;2256;48.740;9.106;2023-07-30T09:43:34;2.40;;;1.87;;
4486;SDS011;2256;48.740;9.106;2023-07-30T09:46:02;2.10;;;1.70;;
4486;SDS011;2256;48.740;9.106;2023-07-30T09:48:30;1.73;;;1.63;;
4486;SDS011;2256;48.740;9.106;2023-07-30T09:50:58;1.90;;;1.80;;
4486;SDS011;2256;48.740;9.106;2023-07-30T09:53:27;3.00;;;1.90;;
4486;SDS011;2256;48.740;9.106;2023-07-30T09:55:59;1.70;;;1.60;;
4486;SDS011;2256;48.740;9.106;2023-07-30T09:58:27;1.90;;;1.80;;
4486;SDS011;2256;48.740;9.106;2023-07-30T10:00:54;2.90;;;2.10;;
4486;SDS011;2256;48.740;9.106;2023-07-30T10:03:24;4.10;;;2.00;;
4486;SDS011;2256;48.740;9.106;2023-07-30T10:05:51;1.83;;;1.60;;
4486;SDS011;2256;48.740;9.106;2023-07-30T10:08:24;1.80;;;1.70;;
4486;SDS011;2256;48.740;9.106;2023-07-30T10:10:53;2.03;;;1.60;;
4486;SDS011;2256;48.740;9.106;2023-07-30T10:13:21;2.20;;;1.87;;
4486;SDS011;2256;48.740;9.106;2023-07-30T10:15:50;2.07;;;1.80;;
4486;SDS011;2256;48.740;9.106;2023-07-30T10:18:17;2.90;;;1.70;;
4486;SDS011;2256;48.740;9.106;2023-07-30T10:20:45;5.47;;;2.20;;
4486;SDS011;2256;48.740;9.106;2023-07-30T10:23:19;3.40;;;2.00;;
4486;SDS011;2256;48.740;9.106;2023-07-30T10:25:46;1.70;;;1.60;;
4486;SDS011;2256;48.740;9.106;2023-07-30T10:28:27;2.40;;;1.67;;
4486;SDS011;2256;48.740;9.106;2023-07-30T10:30:59;2.40;;;1.80;;
4486;SDS011;2256;48.740;9.106;2023-07-30T10:33:43;2.10;;;1.90;;
4486;SDS011;2256;48.740;9.106;2023-07-30T10:36:11;2.40;;;1.83;;
4486;SDS011;2256;48.740;9.106;2023-07-30T10:38:38;1.93;;;1.80;;
4486;SDS011;2256;48.740;9.106;2023-07-30T10:41:07;6.77;;;1.70;;
4486;SDS011;2256;48.740;9.106;2023-07-30T10:43:36;1.70;;;1.60;;
4486;SDS011;2256;48.740;9.106;2023-07-30T10:46:05;4.00;;;1.80;;
4486;SDS011;2256;48.740;9.106;2023-07-30T10:48:34;1.70;;;1.60;;
4486;SDS011;2256;48.740;9.106;2023-07-30T10:51:04;2.93;;;2.13;;
4486;SDS011;2256;48.740;9.106;2023-07-30T10:53:32;3.27;;;2.00;;
4486;SDS011;2256;48.740;9.106;2023-07-30T10:56:00;2.57;;;2.37;;
4486;SDS011;2256;48.740;9.106;2023-07-30T10:58:28;2.10;;;1.90;;
4486;SDS011;2256;48.740;9.106;2023-07-30T11:00:56;3.67;;;2.50;;
4486;SDS011;2256;48.740;9.106;2023-07-30T11:03:25;2.37;;;2.00;;
4486;SDS011;2256;48.740;9.106;2023-07-30T11:05:52;2.40;;;2.00;;
4486;SDS011;2256;48.740;9.106;2023-07-30T11:08:30;2.20;;;1.93;;
4486;SDS011;2256;48.740;9.106;2023-07-30T11:10:59;3.17;;;2.23;;
4486;SDS011;2256;48.740;9.106;2023-07-30T11:13:26;3.00;;;1.70;;
4486;SDS011;2256;48.740;9.106;2023-07-30T11:15:53;2.47;;;2.07;;
4486;SDS011;2256;48.740;9.106;2023-07-30T11:18:19;2.03;;;1.67;;
4486;SDS011;2256;48.740;9.106;2023-07-30T11:20:47;2.50;;;2.30;;
4486;SDS011;2256;48.740;9.106;2023-07-30T11:23:19;3.13;;;2.10;;
4486;SDS011;2256;48.740;9.106;2023-07-30T11:25:47;3.30;;;2.00;;
4486;SDS011;2256;48.740;9.106;2023-07-30T11:28:15;2.20;;;1.77;;
4486;SDS011;2256;48.740;9.106;2023-07-30T11:30:53;2.30;;;2.10;;
4486;SDS011;2256;48.740;9.106;2023-07-30T11:33:19;2.47;;;1.63;;
4486;SDS011;2256;48.740;9.106;2023-07-30T11:35:48;1.93;;;1.63;;
4486;SDS011;2256;48.740;9.106;2023-07-30T11:38:15;3.70;;;2.67;;
4486;SDS011;2256;48.740;9.106;2023-07-30T11:40:42;2.20;;;2.00;;
4486;SDS011;2256;48.740;9.106;2023-07-30T11:43:09;8.63;;;2.20;;
4486;SDS011;2256;48.740;9.106;2023-07-30T11:45:37;2.63;;;1.97;;
4486;SDS011;2256;48.740;9.106;2023-07-30T11:48:07;2.40;;;2.20;;
4486;SDS011;2256;48.740;9.106;2023-07-30T11:50:49;3.40;;;1.87;;
4486;SDS011;2256;48.740;9.106;2023-07-30T11:53:17;5.23;;;2.37;;
4486;SDS011;2256;48.740;9.106;2023-07-30T11:55:44;3.10;;;2.20;;
4486;SDS011;2256;48.740;9.106;2023-07-30T11:58:12;2.00;;;1.80;;
4486;SDS011;2256;48.740;9.106;2023-07-30T12:00:40;8.13;;;2.37;;
4486;SDS011;2256;48.740;9.106;2023-07-30T12:03:09;2.43;;;2.10;;
4486;SDS011;2256;48.740;9.106;2023-07-30T12:05:38;4.20;;;2.33;;
4486;SDS011;2256;48.740;9.106;2023-07-30T12:08:13;2.13;;;1.93;;
4486;SDS011;2256;48.740;9.106;2023-07-30T12:10:45;1.60;;;1.50;;
4486;SDS011;2256;48.740;9.106;2023-07-30T12:13:17;2.13;;;1.93;;
4486;SDS011;2256;48.740;9.106;2023-07-30T12:15:50;6.20;;;2.20;;
4486;SDS011;2256;48.740;9.106;2023-07-30T12:18:17;3.93;;;2.37;;
4486;SDS011;2256;48.740;9.106;2023-07-30T12:20:44;3.83;;;2.10;;
4486;SDS011;2256;48.740;9.106;2023-07-30T12:23:12;1.70;;;1.60;;
4486;SDS011;2256;48.740;9.106;2023-07-30T12:25:39;2.30;;;1.87;;
4486;SDS011;2256;48.740;9.106;2023-07-30T12:28:06;10.30;;;2.30;;
4486;SDS011;2256;48.740;9.106;2023-07-30T12:30:33;4.93;;;2.20;;
4486;SDS011;2256;48.740;9.106;2023-07-30T12:33:01;3.40;;;2.40;;
4486;SDS011;2256;48.740;9.106;2023-07-30T12:35:29;4.40;;;1.73;;
4486;SDS011;2256;48.740;9.106;2023-07-30T12:37:55;1.90;;;1.80;;
4486;SDS011;2256;48.740;9.106;2023-07-30T12:40:24;2.23;;;1.87;;
4486;SDS011;2256;48.740;9.106;2023-07-30T12:42:51;2.87;;;2.13;;
4486;SDS011;2256;48.740;9.106;2023-07-30T12:45:18;2.00;;;1.90;;
4486;SDS011;2256;48.740;9.106;2023-07-30T12:47:45;3.30;;;1.70;;
4486;SDS011;2256;48.740;9.106;2023-07-30T12:50:11;2.63;;;2.20;;
4486;SDS011;2256;48.740;9.106;2023-07-30T12:52:38;2.43;;;2.23;;
4486;SDS011;2256;48.740;9.106;2023-07-30T12:55:05;2.10;;;1.60;;
4486;SDS011;2256;48.740;9.106;2023-07-30T12:57:33;4.97;;;1.97;;
4486;SDS011;2256;48.740;9.106;2023-07-30T13:00:00;2.43;;;2.20;;
4486;SDS011;2256;48.740;9.106;2023-07-30T13:02:28;2.27;;;1.90;;
4486;SDS011;2256;48.740;9.106;2023-07-30T13:04:58;2.87;;;1.80;;
4486;SDS011;2256;48.740;9.106;2023-07-30T13:07:25;5.03;;;1.80;;
4486;SDS011;2256;48.740;9.106;2023-07-30T13:10:01;4.20;;;1.70;;
4486;SDS011;2256;48.740;9.106;2023-07-30T13:12:28;4.70;;;1.77;;
4486;SDS011;2256;48.740;9.106;2023-07-30T13:14:56;2.30;;;1.97;;
4486;SDS011;2256;48.740;9.106;2023-07-30T13:17:23;2.70;;;1.80;;
4486;SDS011;2256;48.740;9.106;2023-07-30T13:19:50;9.03;;;2.40;;
4486;SDS011;2256;48.740;9.106;2023-07-30T13:22:17;2.43;;;1.70;;
4486;SDS011;2256;48.740;9.106;2023-07-30T13:24:43;8.27;;;2.10;;
4486;SDS011;2256;48.740;9.106;2023-07-30T13:27:10;6.83;;;2.00;;
4486;SDS011;2256;48.740;9.106;2023-07-30T13:29:37;4.43;;;1.97;;
4486;SDS011;2256;48.740;9.106;2023-07-30T13:32:05;3.00;;;2.00;;
4486;SDS011;2256;48.740;9.106;2023-07-30T13:34:32;2.70;;;2.00;;
4486;SDS011;2256;48.740;9.106;2023-07-30T13:36:59;4.23;;;2.00;;
4486;SDS011;2256;48.740;9.106;2023-07-30T13:39:27;3.17;;;1.90;;
4486;SDS011;2256;48.740;9.106;2023-07-30T13:41:53;2.20;;;2.00;;
4486;SDS011;2256;48.740;9.106;2023-07-30T13:44:20;1.93;;;1.83;;
4486;SDS011;2256;48.740;9.106;2023-07-30T13:46:47;1.90;;;1.70;;
4486;SDS011;2256;48.740;9.106;2023-07-30T13:49:16;3.20;;;1.83;;
4486;SDS011;2256;48.740;9.106;2023-07-30T13:51:43;4.80;;;1.80;;
4486;SDS011;2256;48.740;9.106;2023-07-30T13:54:10;5.63;;;1.93;;
4486;SDS011;2256;48.740;9.106;2023-07-30T13:56:37;2.07;;;1.90;;
4486;SDS011;2256;48.740;9.106;2023-07-30T13:59:03;3.50;;;1.77;;
4486;SDS011;2256;48.740;9.106;2023-07-30T14:01:30;2.80;;;2.60;;
4486;SDS011;2256;48.740;9.106;2023-07-30T14:03:57;2.50;;;2.10;;
4486;SDS011;2256;48.740;9.106;2023-07-30T14:06:25;2.70;;;2.00;;
4486;SDS011;2256;48.740;9.106;2023-07-30T14:08:52;5.70;;;2.30;;
4486;SDS011;2256;48.740;9.106;2023-07-30T14:11:19;3.53;;;2.27;;
4486;SDS011;2256;48.740;9.106;2023-07-30T14:13:46;1.90;;;1.77;;
4486;SDS011;2256;48.740;9.106;2023-07-30T14:16:12;3.00;;;2.13;;
4486;SDS011;2256;48.740;9.106;2023-07-30T14:18:39;3.60;;;1.90;;
4486;SDS011;2256;48.740;9.106;2023-07-30T14:21:06;11.10;;;2.37;;
4486;SDS011;2256;48.740;9.106;2023-07-30T14:23:34;1.97;;;1.70;;
4486;SDS011;2256;48.740;9.106;2023-07-30T14:26:01;2.40;;;2.20;;
4486;SDS011;2256;48.740;9.106;2023-07-30T14:28:27;2.73;;;1.70;;
4486;SDS011;2256;48.740;9.106;2023-07-30T14:30:54;7.53;;;2.30;;
4486;SDS011;2256;48.740;9.106;2023-07-30T14:33:21;2.47;;;1.73;;
4486;SDS011;2256;48.740;9.106;2023-07-30T14:35:47;1.83;;;1.57;;
4486;SDS011;2256;48.740;9.106;2023-07-30T14:38:14;2.60;;;2.13;;
4486;SDS011;2256;48.740;9.106;2023-07-30T14:40:43;3.77;;;2.10;;
4486;SDS011;2256;48.740;9.106;2023-07-30T14:43:10;2.00;;;1.80;;
4486;SDS011;2256;48.740;9.106;2023-07-30T14:45:37;2.93;;;2.20;;
4486;SDS011;2256;48.740;9.106;2023-07-30T14:48:03;5.50;;;1.73;;
4486;SDS011;2256;48.740;9.106;2023-07-30T14:50:30;4.07;;;1.90;;
4486;SDS011;2256;48.740;9.106;2023-07-30T14:52:57;2.70;;;1.90;;
4486;SDS011;2256;48.740;9.106;2023-07-30T14:55:24;1.80;;;1.70;;
4486;SDS011;2256;48.740;9.106;2023-07-30T14:57:52;7.80;;;2.07;;
4486;SDS011;2256;48.740;9.106;2023-07-30T15:00:19;2.20;;;1.43;;
4486;SDS011;2256;48.740;9.106;2023-07-30T15:02:45;2.40;;;1.87;;
4486;SDS011;2256;48.740;9.106;2023-07-30T15:05:12;1.97;;;1.67;;
4486;SDS011;2256;48.740;9.106;2023-07-30T15:07:39;5.80;;;1.80;;
4486;SDS011;2256;48.740;9.106;2023-07-30T15:10:06;1.80;;;1.70;;
4486;SDS011;2256;48.740;9.106;2023-07-30T15:12:34;3.00;;;2.00;;
4486;SDS011;2256;48.740;9.106;2023-07-30T15:15:03;5.17;;;1.90;;
4486;SDS011;2256;48.740;9.106;2023-07-30T15:17:31;2.70;;;1.73;;